Terminal Aerodrome Forecast
Issued by NWS

Home | Current Version | Previous Version | Graphics & Text | Print | Product List | Glossary On
Versions: 1 2 3 4 5 6 7 8 9 10 11 12 13 14 15 16 17 18 19 20 21 22 23 24 25 26 27 28 29 30 31 32
017
FTUS43 KGRB 211507 AAA
TAFRHI
TAF AMD
KRHI 211507Z 2115/2212 33011G18KT P6SM -SHSN BKN035
     FM212200 34010G17KT P6SM SCT045
     FM220100 36006KT P6SM FEW040
     FM220600 02003KT P6SM FEW029=

USA.gov is the U.S. government's official web portal to all federal, state and local government web resources and services.